Time;durP1;ratioP1;P1;durP2;ratioP2;P2;SDS_P1;SDS_P2;PMS_P1;PMS_P2;Temp;Humidity;BMP_temperature;BMP_pressure;BME280_temperature;BME280_humidity;BME280_pressure;Samples;Min_cycle;Max_cycle;Signal;HPM_P1;HPM_P2
2020/12/25 00:02:21;;;;;;;1.97;1.60;;;;;;;2.57;87.08;98348.00;124468;1148;22690;-67
2020/12/25 00:04:49;;;;;;;4.70;2.55;;;;;;;2.48;86.68;98334.08;124345;1146;23614;-67
2020/12/25 00:07:17;;;;;;;2.10;1.40;;;;;;;2.57;86.63;98356.88;124287;1147;22718;-67
2020/12/25 00:09:45;;;;;;;4.55;2.60;;;;;;;2.57;86.42;98356.88;124099;1149;22698;-67
2020/12/25 00:12:13;;;;;;;3.35;1.95;;;;;;;2.58;86.97;98363.08;124194;1148;22702;-67
2020/12/25 00:14:40;;;;;;;2.95;1.70;;;;;;;2.59;86.97;98378.16;124336;1146;22696;-67
2020/12/25 00:17:08;;;;;;;3.35;1.60;;;;;;;2.62;87.14;98369.60;124311;1148;23901;-67
2020/12/25 00:19:35;;;;;;;3.25;1.85;;;;;;;2.64;86.59;98378.26;124261;1146;22694;-67
2020/12/25 00:22:02;;;;;;;3.65;2.30;;;;;;;2.67;86.57;98369.73;124369;1148;22722;-66
2020/12/25 00:24:30;;;;;;;4.80;2.80;;;;;;;2.68;87.23;98372.19;124224;1147;22695;-67
2020/12/25 00:26:57;;;;;;;3.25;2.15;;;;;;;2.69;86.68;98379.20;124275;1148;22937;-66
2020/12/25 00:29:25;;;;;;;1.50;1.20;;;;;;;2.69;86.42;98379.20;124206;1148;22699;-67
2020/12/25 00:31:52;;;;;;;2.65;1.80;;;;;;;2.70;86.49;98380.84;124343;1147;22745;-67
2020/12/25 00:34:20;;;;;;;4.57;2.13;;;;;;;2.72;86.94;98370.67;124314;1147;22688;-67
2020/12/25 00:36:47;;;;;;;4.25;1.75;;;;;;;2.73;87.04;98380.38;124258;1145;22727;-66
2020/12/25 00:39:16;;;;;;;4.00;2.25;;;;;;;2.75;86.31;98372.05;124178;1146;23383;-66
2020/12/25 00:41:44;;;;;;;4.30;2.35;;;;;;;2.78;86.75;98367.02;124230;1146;22686;-66
2020/12/25 00:44:12;;;;;;;4.20;2.00;;;;;;;2.80;86.55;98372.16;124170;1147;23392;-66
2020/12/25 00:46:40;;;;;;;4.43;2.10;;;;;;;2.83;87.13;98358.25;124367;1146;22717;-66
2020/12/25 00:49:08;;;;;;;4.30;2.00;;;;;;;2.82;86.60;98349.36;124273;1148;23487;-67
2020/12/25 00:51:36;;;;;;;1.63;1.30;;;;;;;2.82;86.96;98353.92;124103;1148;23624;-67
2020/12/25 00:54:03;;;;;;;3.20;2.30;;;;;;;2.82;87.37;98346.67;124286;1145;23288;-66
2020/12/25 00:56:48;;;;;;;6.80;3.55;;;;;;;2.82;87.18;98338.60;124208;1145;22678;-62
2020/12/25 00:59:16;;;;;;;4.50;2.20;;;;;;;2.85;87.20;98340.00;124229;1147;22721;-61
2020/12/25 01:01:44;;;;;;;2.67;1.70;;;;;;;2.86;86.77;98333.58;124301;1146;22693;-61
2020/12/25 01:04:15;;;;;;;3.00;1.90;;;;;;;2.87;86.84;98321.77;124380;1148;22725;-61
2020/12/25 01:06:43;;;;;;;2.60;1.95;;;;;;;2.88;86.63;98323.40;124156;1147;22701;-61
2020/12/25 01:09:11;;;;;;;3.30;2.10;;;;;;;2.91;86.75;98316.70;124381;1146;22673;-61
2020/12/25 01:11:40;;;;;;;2.80;2.00;;;;;;;2.93;86.47;98314.59;124274;1147;22699;-61
2020/12/25 01:14:07;;;;;;;4.05;2.35;;;;;;;2.96;87.35;98314.13;124228;1148;23469;-61
2020/12/25 01:16:35;;;;;;;3.20;1.80;;;;;;;2.98;86.87;98310.14;124299;1146;25332;-61
2020/12/25 01:19:02;;;;;;;3.20;1.80;;;;;;;3.00;86.93;98309.91;124354;1146;23280;-61
2020/12/25 01:21:31;;;;;;;2.85;1.95;;;;;;;3.02;87.33;98302.42;124286;1146;22843;-62
2020/12/25 01:23:59;;;;;;;4.40;2.73;;;;;;;3.03;87.29;98299.46;124413;1147;23769;-61
2020/12/25 01:26:26;;;;;;;6.40;3.55;;;;;;;3.03;87.26;98296.77;121851;1148;26344;-61
2020/12/25 01:29:00;;;;;;;4.00;2.90;;;;;;;3.03;86.75;98295.98;119605;1148;24705;-61
2020/12/25 01:31:28;;;;;;;5.40;3.03;;;;;;;3.03;87.17;98304.05;119485;1148;25932;-63
2020/12/25 01:33:55;;;;;;;4.63;2.67;;;;;;;3.04;87.27;98321.80;119533;1148;23748;-63
2020/12/25 01:36:23;;;;;;;7.50;4.30;;;;;;;3.03;86.85;98317.51;119469;1148;22942;-63
2020/12/25 01:38:50;;;;;;;4.80;2.75;;;;;;;3.02;86.52;98311.31;119517;1148;24870;-62
2020/12/25 01:41:18;;;;;;;6.33;3.53;;;;;;;3.03;86.97;98320.20;124040;1147;22767;-63
2020/12/25 01:43:45;;;;;;;8.90;4.30;;;;;;;3.03;86.58;98318.30;124199;1148;24788;-62
2020/12/25 01:46:13;;;;;;;8.90;4.00;;;;;;;3.05;86.97;98308.11;124421;1148;22691;-61
2020/12/25 01:48:42;;;;;;;4.23;2.67;;;;;;;3.07;86.84;98314.08;124025;1148;24582;-61
2020/12/25 01:51:12;;;;;;;6.35;3.25;;;;;;;3.06;87.18;98298.17;124239;1148;22788;-61
2020/12/25 01:53:39;;;;;;;5.20;2.93;;;;;;;3.07;87.25;98310.57;124205;1148;23703;-62
2020/12/25 01:56:06;;;;;;;5.60;3.70;;;;;;;3.07;87.42;98306.00;124307;1146;22781;-61
2020/12/25 01:58:36;;;;;;;7.60;4.40;;;;;;;3.08;87.45;98312.20;124204;1148;22762;-62
2020/12/25 02:01:04;;;;;;;8.27;5.10;;;;;;;3.10;87.29;98315.48;124188;1148;22695;-61
2020/12/25 02:03:32;;;;;;;8.15;4.30;;;;;;;3.10;87.16;98310.92;124145;1148;23930;-61
2020/12/25 02:05:59;;;;;;;6.95;4.05;;;;;;;3.12;87.42;98310.68;124343;1148;22786;-61
2020/12/25 02:08:27;;;;;;;7.13;4.57;;;;;;;3.12;87.41;98311.50;124179;1147;22672;-61
2020/12/25 02:10:54;;;;;;;5.27;3.30;;;;;;;3.14;87.26;98304.01;124258;1146;22688;-62
2020/12/25 02:13:22;;;;;;;7.57;4.20;;;;;;;3.13;86.80;98307.75;124234;1147;22755;-61
2020/12/25 02:15:49;;;;;;;7.40;4.40;;;;;;;3.16;87.31;98301.90;124264;1148;22674;-61
2020/12/25 02:18:16;;;;;;;7.40;4.40;;;;;;;3.19;87.38;98303.27;124242;1148;22709;-62
2020/12/25 02:20:44;;;;;;;7.80;4.90;;;;;;;3.21;87.55;98311.92;124311;1147;22698;-61
2020/12/25 02:23:11;;;;;;;10.53;6.47;;;;;;;3.22;87.43;98305.48;124155;1148;22717;-61
2020/12/25 02:25:40;;;;;;;9.55;6.45;;;;;;;3.25;87.71;98302.31;124324;1146;22672;-61
2020/12/25 02:28:07;;;;;;;11.60;5.75;;;;;;;3.26;87.31;98290.50;124299;1146;23479;-62
2020/12/25 02:30:34;;;;;;;10.95;6.15;;;;;;;3.27;87.93;98292.13;124442;1147;23508;-61
2020/12/25 02:33:02;;;;;;;11.63;6.87;;;;;;;3.29;87.65;98289.20;124255;1148;22771;-62
2020/12/25 02:35:29;;;;;;;12.25;6.10;;;;;;;3.29;87.66;98289.20;124249;1145;23565;-61
2020/12/25 02:37:56;;;;;;;12.63;6.87;;;;;;;3.33;88.03;98303.79;124192;1148;22668;-61
2020/12/25 02:40:24;;;;;;;12.10;6.57;;;;;;;3.34;87.46;98297.35;124093;1148;22758;-61
2020/12/25 02:42:52;;;;;;;10.50;6.00;;;;;;;3.35;87.95;98309.75;124107;1149;22696;-61
2020/12/25 02:45:19;;;;;;;12.77;6.33;;;;;;;3.37;87.81;98304.95;124111;1148;22738;-61
2020/12/25 02:47:48;;;;;;;15.00;7.47;;;;;;;3.42;88.42;98297.80;124169;1149;22695;-61
2020/12/25 02:50:15;;;;;;;14.80;8.10;;;;;;;3.45;87.77;98301.89;124179;1148;22707;-61
2020/12/25 02:52:43;;;;;;;13.17;7.33;;;;;;;3.47;88.00;98297.05;124210;1148;22775;-61
2020/12/25 02:55:12;;;;;;;12.95;8.00;;;;;;;3.50;87.71;98300.08;124150;1148;22685;-61
2020/12/25 02:57:40;;;;;;;14.97;7.03;;;;;;;3.54;87.88;98301.24;124258;1148;22684;-61
2020/12/25 03:00:07;;;;;;;15.25;8.15;;;;;;;3.57;87.92;98304.52;124153;1148;24879;-61
2020/12/25 03:02:36;;;;;;;15.85;9.35;;;;;;;3.58;88.38;98303.45;124327;1148;22723;-61
2020/12/25 03:05:03;;;;;;;17.63;9.70;;;;;;;3.60;87.71;98295.95;124064;1148;22765;-61
2020/12/25 03:07:31;;;;;;;19.85;10.30;;;;;;;3.60;88.04;98299.46;124171;1148;22679;-61
2020/12/25 03:09:59;;;;;;;17.57;9.37;;;;;;;3.63;87.64;98296.26;124099;1148;22716;-61
2020/12/25 03:12:27;;;;;;;18.27;9.57;;;;;;;3.65;87.82;98302.22;124211;1148;22695;-61
2020/12/25 03:14:55;;;;;;;14.80;8.33;;;;;;;3.68;88.32;98311.70;124092;1149;22743;-61
2020/12/25 03:17:22;;;;;;;16.00;9.00;;;;;;;3.71;87.50;98317.42;124070;1148;22693;-61
2020/12/25 03:19:49;;;;;;;15.90;9.40;;;;;;;3.73;88.12;98319.88;124213;1148;22711;-61
2020/12/25 03:22:17;;;;;;;18.70;9.80;;;;;;;3.76;87.84;98320.19;124129;1148;22710;-61
2020/12/25 03:24:44;;;;;;;19.47;9.73;;;;;;;3.78;87.83;98317.25;124207;1148;22714;-61
2020/12/25 03:27:11;;;;;;;20.77;10.60;;;;;;;3.79;88.10;98319.70;124200;1148;22664;-61
2020/12/25 03:29:39;;;;;;;18.50;10.50;;;;;;;3.81;88.10;98322.98;124180;1148;22787;-61
2020/12/25 03:32:06;;;;;;;20.13;11.87;;;;;;;3.83;87.99;98334.33;124141;1148;22768;-61
2020/12/25 03:34:34;;;;;;;19.33;10.87;;;;;;;3.84;88.07;98343.23;124263;1148;22692;-61
2020/12/25 03:37:01;;;;;;;21.55;10.90;;;;;;;3.85;88.06;98337.61;124127;1148;23358;-58
2020/12/25 03:39:29;;;;;;;21.37;10.77;;;;;;;3.85;88.06;98337.61;124169;1147;22730;-58
2020/12/25 03:41:56;;;;;;;22.50;12.05;;;;;;;3.88;87.92;98333.61;124092;1147;23486;-58
2020/12/25 03:44:24;;;;;;;19.95;11.70;;;;;;;3.89;87.64;98335.25;124392;1146;22702;-58
2020/12/25 03:46:51;;;;;;;21.25;12.55;;;;;;;3.89;88.24;98336.06;124137;1148;23876;-58
2020/12/25 03:49:19;;;;;;;23.05;11.45;;;;;;;3.92;87.77;98329.34;124329;1148;22712;-58
2020/12/25 03:51:46;;;;;;;16.15;10.55;;;;;;;3.93;87.77;98316.69;124142;1148;23800;-58
2020/12/25 03:54:13;;;;;;;23.20;12.17;;;;;;;3.94;87.96;98321.02;124183;1148;22695;-58
2020/12/25 03:57:42;;;;;;;21.83;12.53;;;;;;;3.97;87.94;98320.54;119958;1148;26446;-59
2020/12/25 04:00:09;;;;;;;23.53;13.43;;;;;;;3.98;88.09;98319.48;119852;1148;22943;-59
2020/12/25 04:02:37;;;;;;;19.70;12.30;;;;;;;4.01;88.04;98324.39;124067;1147;22769;-60
2020/12/25 04:05:04;;;;;;;23.55;13.60;;;;;;;4.02;88.19;98324.14;124410;1145;22757;-60
2020/12/25 04:07:32;;;;;;;24.45;13.30;;;;;;;4.02;88.19;98318.75;124221;1145;23354;-60
2020/12/25 04:09:59;;;;;;;19.93;11.83;;;;;;;4.05;88.29;98328.20;124702;1144;22754;-60
2020/12/25 04:12:27;;;;;;;24.35;11.90;;;;;;;4.06;87.39;98319.88;124521;1144;23386;-60
2020/12/25 04:14:55;;;;;;;23.27;13.20;;;;;;;4.07;87.93;98326.90;124599;1144;22688;-60
2020/12/25 04:17:22;;;;;;;21.55;11.50;;;;;;;4.11;87.78;98332.63;124669;1143;22694;-59
2020/12/25 04:19:49;;;;;;;24.63;12.50;;;;;;;4.15;87.86;98331.08;124654;1142;22678;-59
2020/12/25 04:22:17;;;;;;;26.43;14.20;;;;;;;4.17;87.82;98324.39;124808;1142;22702;-60
2020/12/25 04:24:44;;;;;;;26.07;15.03;;;;;;;4.20;87.69;98329.27;124573;1143;22661;-60
2020/12/25 04:27:12;;;;;;;31.05;15.95;;;;;;;4.22;88.10;98334.41;124619;1144;23354;-60
2020/12/25 04:29:39;;;;;;;24.75;14.65;;;;;;;4.22;87.93;98332.53;124598;1143;23518;-60
2020/12/25 04:32:07;;;;;;;25.43;14.03;;;;;;;4.25;87.72;98332.05;124755;1144;22746;-60
2020/12/25 04:34:36;;;;;;;25.10;14.45;;;;;;;4.27;87.89;98321.02;124409;1144;22659;-60
2020/12/25 04:37:03;;;;;;;27.40;14.63;;;;;;;4.29;87.90;98332.37;124803;1142;22820;-60
2020/12/25 04:39:31;;;;;;;27.65;14.85;;;;;;;4.31;88.06;98341.04;123780;1144;26056;-62
2020/12/25 04:41:58;;;;;;;25.85;14.10;;;;;;;4.34;88.29;98326.22;124472;1144;22861;-63
2020/12/25 04:44:25;;;;;;;25.85;14.35;;;;;;;4.36;87.65;98324.10;124366;1144;23302;-63
2020/12/25 04:46:53;;;;;;;24.60;13.43;;;;;;;4.38;87.98;98324.67;124647;1144;22755;-63
2020/12/25 04:49:20;;;;;;;22.40;14.00;;;;;;;4.41;88.01;98332.28;124384;1144;22703;-63
2020/12/25 04:51:48;;;;;;;25.30;14.65;;;;;;;4.42;88.19;98337.43;124649;1142;22677;-63
2020/12/25 04:54:15;;;;;;;34.50;19.27;;;;;;;4.46;87.55;98345.84;124491;1144;23121;-63
2020/12/25 04:56:43;;;;;;;27.45;17.20;;;;;;;4.46;87.98;98353.94;124490;1143;22717;-63
2020/12/25 04:59:11;;;;;;;26.93;16.07;;;;;;;4.46;87.95;98351.24;124478;1145;22786;-63
2020/12/25 05:01:40;;;;;;;30.50;16.50;;;;;;;4.38;87.46;98333.58;124520;1144;23489;-63
2020/12/25 05:04:17;;;;;;;27.60;15.80;;;;;;;4.48;87.31;98327.52;124622;1144;23939;-63
2020/12/25 05:06:48;;;;;;;28.40;16.05;;;;;;;4.50;87.77;98352.36;124699;1144;22765;-63
2020/12/25 05:09:16;;;;;;;30.30;16.05;;;;;;;4.43;87.20;98343.64;124532;1143;23370;-63
2020/12/25 05:11:51;;;;;;;29.95;16.80;;;;;;;4.52;87.77;98356.45;124654;1144;22802;-63
2020/12/25 05:14:19;;;;;;;25.95;15.15;;;;;;;4.54;87.42;98364.30;124501;1142;22688;-63
2020/12/25 05:16:47;;;;;;;27.90;16.20;;;;;;;4.55;87.74;98352.44;121324;1144;26372;-59
2020/12/25 05:19:14;;;;;;;35.03;18.97;;;;;;;4.56;87.60;98356.78;124735;1144;22690;-60
2020/12/25 05:21:42;;;;;;;31.50;18.00;;;;;;;4.56;87.45;98362.98;124267;1145;22686;-59
2020/12/25 05:24:09;;;;;;;32.10;18.35;;;;;;;4.57;87.22;98366.50;124603;1144;22694;-59
2020/12/25 05:26:36;;;;;;;31.85;18.35;;;;;;;4.56;87.63;98360.30;124457;1144;23403;-60
2020/12/25 05:29:04;;;;;;;36.60;18.70;;;;;;;4.56;87.19;98368.38;124586;1144;23469;-60
2020/12/25 05:31:31;;;;;;;48.80;21.55;;;;;;;4.57;87.05;98375.41;124477;1143;22681;-59
2020/12/25 05:33:59;;;;;;;54.20;23.90;;;;;;;4.57;87.50;98386.20;124700;1143;22684;-60
2020/12/25 05:36:29;;;;;;;43.35;20.30;;;;;;;4.56;87.62;98387.27;124676;1144;22732;-60
2020/12/25 05:38:59;;;;;;;34.27;17.50;;;;;;;4.57;87.13;98385.38;124573;1144;22696;-60
2020/12/25 05:41:26;;;;;;;31.80;18.37;;;;;;;4.57;87.33;98375.41;124430;1143;22685;-60
2020/12/25 05:43:54;;;;;;;29.30;17.10;;;;;;;4.58;87.54;98393.23;124570;1144;23704;-60
2020/12/25 05:46:21;;;;;;;31.95;17.85;;;;;;;4.60;86.99;98395.69;124582;1144;22789;-60
2020/12/25 05:48:52;;;;;;;28.13;17.43;;;;;;;4.60;86.86;98393.80;124771;1144;22672;-60
2020/12/25 05:51:22;;;;;;;34.33;19.43;;;;;;;4.60;87.36;98403.78;124397;1144;22684;-60
2020/12/25 05:53:52;;;;;;;35.55;20.05;;;;;;;4.60;87.24;98407.30;124664;1144;22656;-60
2020/12/25 05:56:19;;;;;;;37.40;18.55;;;;;;;4.59;87.15;98416.45;124409;1143;22782;-60
2020/12/25 05:58:46;;;;;;;33.13;19.27;;;;;;;4.61;87.11;98418.91;124450;1144;22679;-60
2020/12/25 06:01:14;;;;;;;33.90;18.70;;;;;;;4.60;87.15;98420.78;124542;1144;22679;-60
2020/12/25 06:03:41;;;;;;;32.73;18.83;;;;;;;4.60;87.16;98417.27;124541;1143;22703;-60
2020/12/25 06:06:13;;;;;;;31.05;18.10;;;;;;;4.61;87.23;98413.51;124509;1144;26210;-60
2020/12/25 06:08:57;;;;;;;33.55;18.05;;;;;;;4.63;87.34;98414.05;124458;1143;22757;-60
2020/12/25 06:11:29;;;;;;;34.40;18.40;;;;;;;4.64;87.73;98421.08;124456;1144;22710;-60
2020/12/25 06:14:00;;;;;;;37.05;19.60;;;;;;;4.65;86.72;98421.91;124606;1142;22769;-60
2020/12/25 06:16:28;;;;;;;34.90;20.55;;;;;;;4.65;87.08;98425.42;124685;1142;22714;-60
2020/12/25 06:19:02;;;;;;;40.55;23.15;;;;;;;4.66;87.03;98431.63;124482;1144;22731;-60
2020/12/25 06:21:40;;;;;;;39.90;23.30;;;;;;;4.66;87.17;98434.33;124504;1144;22682;-60
2020/12/25 06:24:08;;;;;;;39.75;21.80;;;;;;;4.64;86.93;98431.87;124461;1144;22665;-60
2020/12/25 06:26:35;;;;;;;35.80;21.55;;;;;;;4.65;87.08;98429.99;124541;1144;22678;-60
2020/12/25 06:29:03;;;;;;;36.87;20.57;;;;;;;4.65;86.72;98443.48;124304;1144;22697;-60
2020/12/25 06:31:35;;;;;;;34.80;20.45;;;;;;;4.63;86.81;98439.15;124571;1144;23423;-60
2020/12/25 06:34:03;;;;;;;36.15;19.35;;;;;;;4.64;87.33;98439.97;124476;1144;22682;-60
2020/12/25 06:36:31;;;;;;;34.95;19.85;;;;;;;4.62;87.07;98437.52;124649;1144;23762;-60
2020/12/25 06:38:59;;;;;;;41.40;22.30;;;;;;;4.62;86.19;98450.19;124543;1142;22691;-66
2020/12/25 06:41:27;;;;;;;42.40;21.30;;;;;;;4.60;86.71;98452.34;124493;1145;22681;-62
2020/12/25 06:43:57;;;;;;;41.30;21.67;;;;;;;4.59;86.82;98464.19;124489;1144;23575;-62
2020/12/25 06:46:28;;;;;;;35.35;21.30;;;;;;;4.56;86.79;98464.67;124516;1144;22686;-62
2020/12/25 06:49:06;;;;;;;42.60;21.05;;;;;;;4.55;86.41;98466.55;124398;1145;22695;-62
2020/12/25 06:51:46;;;;;;;38.40;21.73;;;;;;;4.55;86.71;98473.82;124493;1144;22653;-62
2020/12/25 06:54:15;;;;;;;;;;;;;;;4.55;86.81;98480.03;124535;1143;22700;-62
2020/12/25 06:56:42;;;;;;;41.45;20.45;;;;;;;4.55;86.97;98468.42;124556;1144;21473;-66
2020/12/25 06:59:14;;;;;;;40.95;21.30;;;;;;;4.56;86.66;98478.97;124550;1144;22695;-65
2020/12/25 07:01:43;;;;;;;41.95;21.15;;;;;;;4.56;86.78;98473.58;124620;1144;22756;-65
2020/12/25 07:04:33;;;;;;;34.10;18.65;;;;;;;4.57;86.99;98469.00;124457;1144;22689;-67
2020/12/25 07:07:05;;;;;;;38.40;21.50;;;;;;;4.60;86.97;98477.44;124812;1144;22687;-67
2020/12/25 07:09:44;;;;;;;37.15;20.80;;;;;;;4.61;87.15;98476.37;124511;1143;22723;-67
2020/12/25 07:12:22;;;;;;;38.70;22.43;;;;;;;4.63;87.17;98476.92;124571;1144;23427;-67
2020/12/25 07:14:49;;;;;;;;;;;;;;;4.64;87.12;98480.44;124447;1143;22741;-68
2020/12/25 07:17:17;;;;;;;40.45;21.90;;;;;;;4.64;86.98;98488.53;124560;1144;21429;-67
2020/12/25 07:19:44;;;;;;;39.87;23.93;;;;;;;4.63;86.92;98482.31;124580;1143;22661;-68
2020/12/25 07:22:11;;;;;;;42.73;22.97;;;;;;;4.65;86.79;98486.65;124623;1144;22765;-68
2020/12/25 07:24:39;;;;;;;33.70;21.60;;;;;;;4.65;86.65;98492.05;124380;1144;22618;-68
2020/12/25 07:27:10;;;;;;;36.70;21.10;;;;;;;4.65;87.04;98495.56;124584;1144;22672;-68
2020/12/25 07:29:38;;;;;;;38.40;20.95;;;;;;;4.65;86.82;98495.56;124562;1142;22657;-68
2020/12/25 07:32:07;;;;;;;34.20;19.47;;;;;;;4.66;86.93;98499.08;124558;1143;23973;-68
2020/12/25 07:34:34;;;;;;;35.30;19.40;;;;;;;4.68;86.63;98502.35;124604;1144;22678;-68
2020/12/25 07:37:02;;;;;;;34.50;18.70;;;;;;;4.69;86.44;98514.78;124460;1143;22688;-68
2020/12/25 07:39:29;;;;;;;35.00;19.80;;;;;;;4.70;86.80;98506.45;124642;1142;22678;-68
2020/12/25 07:41:57;;;;;;;36.95;19.60;;;;;;;4.69;86.67;98510.20;124634;1142;22691;-67
2020/12/25 07:44:25;;;;;;;38.10;21.10;;;;;;;4.71;86.60;98516.17;124751;1143;22676;-67
2020/12/25 07:46:53;;;;;;;34.00;20.35;;;;;;;4.70;87.00;98522.64;124515;1144;22691;-68
2020/12/25 07:49:21;;;;;;;36.50;20.30;;;;;;;4.71;87.10;98532.37;124715;1144;22649;-68
2020/12/25 07:51:49;;;;;;;33.73;20.33;;;;;;;4.71;86.71;98526.97;124380;1144;22820;-68
2020/12/25 07:54:16;;;;;;;35.70;20.00;;;;;;;4.73;86.82;98532.13;124663;1143;22686;-68
2020/12/25 07:56:44;;;;;;;40.75;20.70;;;;;;;4.74;86.68;98533.77;121539;1144;23010;-68
2020/12/25 07:59:12;;;;;;;31.05;17.90;;;;;;;4.75;86.80;98536.22;124762;1144;23312;-68
2020/12/25 08:01:39;;;;;;;30.35;17.35;;;;;;;4.77;86.74;98541.34;124440;1143;22677;-68
2020/12/25 08:04:07;;;;;;;31.45;18.95;;;;;;;4.77;86.82;98546.74;124772;1144;22665;-68
2020/12/25 08:06:35;;;;;;;34.80;19.93;;;;;;;4.76;86.60;98545.92;124603;1144;22785;-68
2020/12/25 08:09:11;;;;;;;36.75;20.90;;;;;;;4.76;86.50;98547.83;124470;1144;22631;-68
2020/12/25 08:11:40;;;;;;;39.58;22.32;;;;;;;4.76;86.66;98548.62;124315;1146;29205;-68
2020/12/25 08:14:09;;;;;;;45.80;25.65;;;;;;;4.78;86.53;98551.08;124647;1142;22638;-68
2020/12/25 08:16:41;;;;;;;42.30;24.60;;;;;;;4.77;86.82;98541.34;124506;1143;22684;-68
2020/12/25 08:19:08;;;;;;;49.45;28.40;;;;;;;4.79;86.46;98541.92;124565;1144;22669;-68
2020/12/25 08:21:38;;;;;;;56.45;31.45;;;;;;;4.82;86.07;98549.54;124532;1146;22691;-68
2020/12/25 08:24:06;;;;;;;47.97;28.77;;;;;;;4.82;85.89;98550.36;124493;1144;22698;-68
2020/12/25 08:26:35;;;;;;;38.65;25.70;;;;;;;4.85;86.15;98557.16;124617;1144;22769;-67
2020/12/25 08:29:02;;;;;;;36.50;22.85;;;;;;;4.87;86.09;98560.43;124529;1143;23869;-68
2020/12/25 08:31:37;;;;;;;39.70;21.10;;;;;;;4.89;86.12;98561.00;124756;1143;22678;-68
2020/12/25 08:34:06;;;;;;;30.95;19.50;;;;;;;4.90;86.22;98566.16;124291;1144;22683;-68
2020/12/25 08:36:33;;;;;;;30.75;19.05;;;;;;;4.90;86.14;98573.44;124526;1144;22671;-68
2020/12/25 08:39:07;;;;;;;25.80;17.35;;;;;;;4.90;86.38;98571.56;124438;1144;22678;-68
2020/12/25 08:41:34;;;;;;;26.70;16.97;;;;;;;4.90;86.32;98568.05;124597;1143;22713;-68
2020/12/25 08:44:11;;;;;;;20.97;14.67;;;;;;;4.90;86.36;98563.47;124427;1144;23296;-68
2020/12/25 08:46:39;;;;;;;;;;;;;;;4.90;86.52;98568.86;124808;1142;22683;-68
2020/12/25 08:49:06;;;;;;;25.35;14.65;;;;;;;4.90;86.23;98570.74;124645;1143;22083;-68
2020/12/25 08:51:37;;;;;;;24.00;14.20;;;;;;;4.91;86.42;98565.07;124589;1142;22683;-68
2020/12/25 08:54:05;;;;;;;21.30;13.60;;;;;;;4.92;85.89;98576.69;124504;1144;22705;-68
2020/12/25 08:56:34;;;;;;;23.60;14.65;;;;;;;4.95;86.96;98570.80;121844;1144;22886;-68
2020/12/25 08:59:03;;;;;;;24.30;15.20;;;;;;;4.98;86.23;98570.32;124498;1144;22787;-68
2020/12/25 09:01:32;;;;;;;22.65;13.65;;;;;;;4.98;86.23;98565.74;124563;1144;22681;-69
2020/12/25 09:03:59;;;;;;;20.45;12.20;;;;;;;5.01;86.33;98569.02;124399;1144;23354;-67
2020/12/25 09:06:27;;;;;;;17.75;11.10;;;;;;;5.03;86.09;98558.80;124555;1144;22672;-68
2020/12/25 09:08:55;;;;;;;15.65;10.55;;;;;;;5.03;85.96;98562.31;124422;1144;23850;-68
2020/12/25 09:11:24;;;;;;;23.45;13.80;;;;;;;5.04;86.52;98561.25;124668;1144;22682;-68
2020/12/25 09:13:51;;;;;;;28.85;16.80;;;;;;;5.08;86.21;98569.66;124542;1143;22697;-68
2020/12/25 09:16:19;;;;;;;24.55;14.75;;;;;;;5.12;86.00;98570.81;124847;1144;23669;-68
2020/12/25 09:18:46;;;;;;;30.67;15.63;;;;;;;5.15;85.63;98563.05;124628;1144;22681;-68
2020/12/25 09:21:14;;;;;;;26.05;13.70;;;;;;;5.19;86.49;98566.89;124431;1143;22699;-68
2020/12/25 09:23:41;;;;;;;20.75;12.25;;;;;;;5.23;85.87;98565.31;124705;1143;22655;-68
2020/12/25 09:26:10;;;;;;;21.25;14.75;;;;;;;5.28;85.67;98565.41;124661;1144;23322;-68
2020/12/25 09:28:38;;;;;;;26.30;15.85;;;;;;;5.34;85.91;98561.70;124771;1143;22712;-68
2020/12/25 09:31:07;;;;;;;26.35;16.60;;;;;;;5.38;86.22;98561.20;124496;1143;22693;-68
2020/12/25 09:33:34;;;;;;;40.45;22.75;;;;;;;5.41;85.67;98566.94;124672;1144;23374;-69
2020/12/25 09:36:03;;;;;;;29.80;16.75;;;;;;;5.44;85.82;98560.23;124598;1144;22706;-68
2020/12/25 09:38:30;;;;;;;25.60;16.70;;;;;;;5.44;85.93;98568.34;124532;1144;22752;-68
2020/12/25 09:40:58;;;;;;;35.45;21.00;;;;;;;5.45;85.53;98570.79;124517;1144;22662;-68
2020/12/25 09:43:28;;;;;;;33.40;18.90;;;;;;;5.45;84.81;98568.09;124664;1144;22724;-68
2020/12/25 09:45:56;;;;;;;30.90;16.37;;;;;;;5.45;84.69;98562.69;124426;1144;22716;-68
2020/12/25 09:48:23;;;;;;;22.85;15.00;;;;;;;5.45;84.58;98562.69;124743;1144;23268;-68
2020/12/25 09:50:51;;;;;;;25.95;14.45;;;;;;;5.43;85.14;98558.59;124613;1144;22649;-68
2020/12/25 09:53:18;;;;;;;21.90;13.05;;;;;;;5.42;84.61;98554.25;124620;1143;24008;-68
2020/12/25 09:55:48;;;;;;;23.10;14.05;;;;;;;5.31;85.01;98540.61;124524;1143;23559;-68
2020/12/25 09:58:15;;;;;;;21.50;13.85;;;;;;;5.40;84.22;98545.58;124519;1145;22730;-68
2020/12/25 10:00:43;;;;;;;21.80;12.40;;;;;;;5.38;84.62;98545.00;124469;1144;22669;-68
2020/12/25 10:03:10;;;;;;;21.47;13.00;;;;;;;5.38;84.49;98540.42;124628;1143;22673;-68
2020/12/25 10:05:37;;;;;;;18.57;11.97;;;;;;;5.38;84.66;98526.09;124508;1144;22687;-65
2020/12/25 10:08:05;;;;;;;21.20;12.80;;;;;;;5.40;84.63;98532.89;124416;1144;22797;-65
2020/12/25 10:10:33;;;;;;;20.17;12.67;;;;;;;5.40;84.04;98522.08;124570;1144;22693;-65
2020/12/25 10:13:01;;;;;;;20.00;12.43;;;;;;;5.43;84.67;98518.89;124505;1144;22745;-64
2020/12/25 10:15:28;;;;;;;18.20;12.53;;;;;;;5.44;84.13;98525.93;124662;1142;22689;-65
2020/12/25 10:17:55;;;;;;;20.43;14.00;;;;;;;5.48;84.91;98528.95;124526;1143;22800;-65
2020/12/25 10:20:23;;;;;;;24.70;14.80;;;;;;;5.49;84.71;98530.56;124669;1144;22663;-66
2020/12/25 10:22:50;;;;;;;22.00;14.20;;;;;;;5.51;84.62;98526.55;124501;1144;22697;-66
2020/12/25 10:25:18;;;;;;;22.35;14.10;;;;;;;5.52;84.63;98528.19;124673;1143;22709;-65
2020/12/25 10:27:45;;;;;;;25.80;16.85;;;;;;;5.53;84.30;98529.83;124524;1144;22680;-66
2020/12/25 10:30:13;;;;;;;21.60;14.15;;;;;;;5.55;84.91;98538.50;124643;1142;23294;-65
2020/12/25 10:32:40;;;;;;;25.70;14.60;;;;;;;5.58;84.69;98545.30;124557;1144;22709;-64
2020/12/25 10:35:11;;;;;;;24.20;13.95;;;;;;;5.61;84.33;98555.61;124603;1143;22784;-56
2020/12/25 10:37:39;;;;;;;21.45;14.40;;;;;;;5.62;84.90;98555.37;124601;1143;22728;-65
2020/12/25 10:40:26;;;;;;;29.07;14.37;;;;;;;5.66;84.34;98550.26;124618;1144;22732;-65
2020/12/25 10:42:54;;;;;;;21.45;13.75;;;;;;;5.69;84.43;98552.47;124488;1144;22693;-65
2020/12/25 10:45:21;;;;;;;22.80;13.45;;;;;;;5.71;84.43;98566.55;124589;1144;22779;-65
2020/12/25 10:47:49;;;;;;;20.50;12.50;;;;;;;5.75;84.56;98556.06;124617;1143;23380;-65
2020/12/25 10:50:16;;;;;;;20.35;12.70;;;;;;;5.77;84.99;98557.42;124755;1143;22672;-65
2020/12/25 10:52:44;;;;;;;23.13;14.50;;;;;;;5.79;84.48;98554.48;124640;1143;25331;-65
2020/12/25 10:55:12;;;;;;;23.15;12.15;;;;;;;5.79;84.71;98560.70;124577;1143;23300;-65
2020/12/25 10:57:39;;;;;;;16.17;10.87;;;;;;;5.81;84.77;98558.57;124671;1143;22731;-65
2020/12/25 11:00:07;;;;;;;17.85;10.60;;;;;;;5.83;84.55;98564.55;124642;1144;22670;-65
2020/12/25 11:02:34;;;;;;;15.75;8.85;;;;;;;5.84;84.47;98560.78;124567;1145;22678;-65
2020/12/25 11:05:09;;;;;;;16.23;9.87;;;;;;;5.83;84.12;98561.84;124378;1145;22699;-59
2020/12/25 11:07:38;;;;;;;14.77;8.77;;;;;;;5.84;84.01;98568.06;124700;1143;22730;-65
2020/12/25 11:10:09;;;;;;;15.05;9.15;;;;;;;5.85;83.73;98569.70;124539;1144;22808;-65
2020/12/25 11:12:41;;;;;;;16.93;9.67;;;;;;;5.86;84.25;98574.86;124583;1142;23499;-65
2020/12/25 11:15:08;;;;;;;14.85;10.50;;;;;;;5.86;83.24;98574.05;124452;1143;22798;-65
2020/12/25 11:17:36;;;;;;;18.73;10.93;;;;;;;5.84;83.15;98576.99;124698;1144;23071;-65
2020/12/25 11:20:03;;;;;;;12.10;8.60;;;;;;;5.85;83.34;98583.22;124350;1145;23440;-65
2020/12/25 11:22:33;;;;;;;12.20;9.40;;;;;;;5.84;82.98;98584.28;124447;1144;22698;-65
2020/12/25 11:25:00;;;;;;;19.07;7.37;;;;;;;5.84;82.98;98585.11;124440;1143;23268;-65
2020/12/25 11:27:27;;;;;;;12.10;7.17;;;;;;;5.84;83.15;98584.28;124671;1142;23294;-65
2020/12/25 11:29:55;;;;;;;9.15;6.15;;;;;;;5.83;82.38;98588.88;124429;1143;22709;-65